This is the latest recevied weather packets stored in our database for station/object N6DZK. If no packets are shown the sender has not sent any weather packets the latest 10 day(s).
| Time | Temp. | Humidity | Pressure | Rain* | Wind** | Luminosity | Snow |
|---|---|---|---|---|---|---|---|
| 1777828236 | 18.89° C | 63% | 1013.7 hPa | 0 mm | - | 681 W/m² | - |
| 1777827932 | 17.22° C | 68% | 1013.6 hPa | 0 mm | - | 882 W/m² | - |
| 1777827327 | 18.89° C | 60% | 1013.4 hPa | 0 mm | - | 251 W/m² | - |
| 1777824903 | 16.11° C | 70% | 1013.6 hPa | 0 mm | - | 362 W/m² | - |
| 1777821570 | 14.44° C | 75% | 1013.2 hPa | 0 mm | - | 159 W/m² | - |
| 1777819148 | 12.78° C | 83% | 1013.1 hPa | 0 mm | - | 75 W/m² | - |
| 1777817933 | 12.78° C | 84% | 1012.8 hPa | 0 mm | - | 42 W/m² | - |
| 1777817631 | 12.78° C | 84% | 1012.6 hPa | 0 mm | - | 41 W/m² | - |
| 1777816720 | 12.78° C | 85% | 1012.5 hPa | 0 mm | - | 24 W/m² | - |
| 1777815208 | 12.22° C | 85% | 1012.3 hPa | 0 mm | - | 6 W/m² | - |
| 1777814904 | 12.22° C | 86% | 1012 hPa | 0 mm | - | 6 W/m² | - |
| 1777814601 | 12.22° C | 85% | 1012.2 hPa | 0 mm | - | 5 W/m² | - |
| 1777814298 | 12.22° C | 85% | 1012.2 hPa | 0 mm | - | 2 W/m² | - |
| 1777813692 | 12.22° C | 86% | 1012 hPa | 0 mm | - | 1 W/m² | - |
| 1777811575 | 12.22° C | 85% | 1011.5 hPa | 0 mm | - | 0 W/m² | - |
| 1777811270 | 12.22° C | 84% | 1011.5 hPa | 0 mm | - | 0 W/m² | - |
| 1777810967 | 12.22° C | 84% | 1011.4 hPa | 0 mm | - | 0 W/m² | - |
| 1777810664 | 12.22° C | 84% | 1011.4 hPa | 0 mm | - | 0 W/m² | - |
| 1777810361 | 12.22° C | 83% | 1011.7 hPa | 0 mm | - | 0 W/m² | - |
| 1777809755 | 12.78° C | 83% | 1011.5 hPa | 0 mm | - | 0 W/m² | - |
| 1777809452 | 12.78° C | 82% | 1011.4 hPa | 0 mm | - | 0 W/m² | - |
| 1777809150 | 12.78° C | 82% | 1011.5 hPa | 0 mm | - | 0 W/m² | - |
| 1777808847 | 12.78° C | 82% | 1011.5 hPa | 0 mm | - | 0 W/m² | - |
| 1777808241 | 12.78° C | 83% | 1011.2 hPa | 0 mm | - | 0 W/m² | - |
| 1777807940 | 12.78° C | 83% | 1011.4 hPa | 0 mm | - | 0 W/m² | - |
* Rain latest hour (hover to see other rain measurements)
** Current wind speed in m/s (hover to see current wind gust speed)